Haugen, Minnesota
Current Conditions -  °F | °C
As of 9:45 AM on Thursday 23 Oct 2014 (Local Time) from KHZX Reporting Station
Overcast Overcast  
Wind Chill: 50°   Ceiling: 300
Heat Index: 50°   Visibility: 7mi
Dew Point: 50°   Wind: 5mph
Humidity: 100%   Direction: 220°SW
Pressure: 29.97"   Gusts: NA
Location:  46.6404°N, 93.1222°W
Report Text: KHZX 231445Z AUTO 22004KT 7SM OVC003 10/10 A2997 RMK AO2
Loading
Personal Weather Stations






























Interactive Weather Map
Tropical Storm Tracking
New forecast layout! Learn more

10-Day Weather Forecast

Advertisements
Track Severe Weather on mobile